Time;durP1;ratioP1;P1;durP2;ratioP2;P2;SDS_P1;SDS_P2;PMS_P1;PMS_P2;Temp;Humidity;BMP_temperature;BMP_pressure;BME280_temperature;BME280_humidity;BME280_pressure;Samples;Min_cycle;Max_cycle;Signal;HPM_P1;HPM_P2
2022/09/06 00:01:08;;;;;;;4.18;3.22;;;22.20;52.00;;;;;;4977223;28;20046;-66
2022/09/06 00:03:33;;;;;;;6.13;3.63;;;22.20;52.20;;;;;;4977352;28;20031;-66
2022/09/06 00:06:12;;;;;;;3.97;3.08;;;22.20;52.40;;;;;;4977142;28;20039;-67
2022/09/06 00:08:39;;;;;;;3.83;2.85;;;22.20;52.40;;;;;;4976115;28;20051;-68
2022/09/06 00:11:05;;;;;;;3.55;3.25;;;22.20;51.90;;;;;;4978020;28;20055;-68
2022/09/06 00:13:31;;;;;;;4.20;3.22;;;22.10;52.30;;;;;;4976111;28;20510;-69
2022/09/06 00:16:05;;;;;;;6.53;3.63;;;22.10;52.40;;;;;;4976913;28;20103;-67
2022/09/06 00:18:30;;;;;;;6.65;3.65;;;22.10;52.70;;;;;;4990311;28;20418;-68
2022/09/06 00:20:56;;;;;;;4.75;3.90;;;22.10;52.70;;;;;;4982606;28;20177;-67
2022/09/06 00:23:22;;;;;;;4.57;3.50;;;22.00;52.50;;;;;;4975895;28;20121;-66
2022/09/06 00:25:47;;;;;;;5.60;4.20;;;22.00;52.50;;;;;;4976614;28;20125;-66
2022/09/06 00:28:15;;;;;;;5.88;3.40;;;22.00;52.70;;;;;;4985328;28;20077;-66
2022/09/06 00:30:40;;;;;;;4.93;3.65;;;21.90;52.80;;;;;;4988338;28;20122;-67
2022/09/06 00:33:06;;;;;;;3.63;3.25;;;21.90;52.80;;;;;;5007016;28;20118;-67
2022/09/06 00:35:32;;;;;;;6.70;3.80;;;21.80;52.70;;;;;;5009970;28;20045;-67
2022/09/06 00:37:59;;;;;;;4.65;3.90;;;21.80;52.90;;;;;;4975078;28;20066;-66
2022/09/06 00:40:28;;;;;;;4.85;3.80;;;21.80;52.90;;;;;;4974993;28;20074;-66
2022/09/06 00:42:57;;;;;;;5.90;4.65;;;21.70;52.90;;;;;;4975485;28;20047;-66
2022/09/06 00:45:26;;;;;;;5.53;3.83;;;21.70;53.00;;;;;;4978000;28;20149;-67
2022/09/06 00:47:51;;;;;;;6.22;3.92;;;21.60;53.10;;;;;;4993108;28;20043;-67
2022/09/06 00:50:18;;;;;;;8.23;4.20;;;21.50;53.20;;;;;;4992754;28;20050;-67
2022/09/06 00:52:47;;;;;;;4.75;3.85;;;21.50;53.30;;;;;;4992977;28;20050;-67
2022/09/06 00:55:13;;;;;;;8.23;4.68;;;21.50;53.40;;;;;;4993377;28;20093;-67
2022/09/06 00:57:39;;;;;;;5.75;4.38;;;21.50;53.70;;;;;;4993331;28;20195;-67
2022/09/06 01:00:08;;;;;;;4.97;4.45;;;21.40;54.10;;;;;;4986142;28;20046;-67
2022/09/06 01:02:34;;;;;;;6.05;4.85;;;21.40;53.70;;;;;;4974011;28;20051;-66
2022/09/06 01:05:01;;;;;;;5.53;4.57;;;21.40;53.70;;;;;;4986702;28;20476;-66
2022/09/06 01:07:32;;;;;;;6.25;4.65;;;21.30;53.80;;;;;;4987759;28;20058;-66
2022/09/06 01:10:15;;;;;;;5.53;4.28;;;21.30;53.80;;;;;;4986045;28;20074;-66
2022/09/06 01:13:02;;;;;;;6.60;4.57;;;21.30;53.90;;;;;;4974955;28;20050;-67
2022/09/06 01:15:37;;;;;;;5.55;3.90;;;21.20;53.90;;;;;;4974802;28;20043;-66
2022/09/06 01:18:29;;;;;;;4.03;3.38;;;21.20;53.80;;;;;;4983537;28;20129;-66
2022/09/06 01:21:04;;;;;;;5.13;4.00;;;21.20;53.60;;;;;;4987361;28;20073;-67
2022/09/06 01:24:07;;;;;;;5.78;3.72;;;21.20;53.50;;;;;;4992421;28;20046;-67
2022/09/06 01:26:51;;;;;;;5.00;3.70;;;21.20;53.40;;;;;;4992746;28;20088;-66
2022/09/06 01:29:39;;;;;;;;;;;21.20;53.70;;;;;;4992499;28;20054;-66
2022/09/06 01:32:25;;;;;;;5.63;5.00;;;21.20;53.60;;;;;;4975221;28;19949;-66
2022/09/06 01:35:22;;;;;;;5.88;4.72;;;21.20;54.00;;;;;;4975648;28;20081;-66
2022/09/06 01:37:48;;;;;;;7.25;4.85;;;21.10;54.00;;;;;;4981352;28;20125;-66
2022/09/06 01:40:14;;;;;;;5.97;4.78;;;21.00;54.10;;;;;;4953958;28;1099483;-66
2022/09/06 01:42:41;;;;;;;7.05;4.57;;;21.00;54.30;;;;;;4984034;28;20454;-67
2022/09/06 01:45:13;;;;;;;7.25;4.85;;;21.00;54.40;;;;;;4974458;28;20072;-68
2022/09/06 01:48:01;;;;;;;4.93;4.43;;;20.90;54.50;;;;;;4990829;28;20129;-68
2022/09/06 01:51:09;;;;;;;8.15;4.78;;;20.90;55.00;;;;;;4993140;28;20053;-68
2022/09/06 01:54:03;;;;;;;6.75;4.55;;;20.90;54.60;;;;;;4977419;28;20117;-66
2022/09/06 01:56:29;;;;;;;8.37;4.53;;;20.80;54.70;;;;;;4982462;28;20394;-66
2022/09/06 01:59:16;;;;;;;5.47;4.60;;;20.70;54.70;;;;;;4984539;28;20278;-67
2022/09/06 02:02:16;;;;;;;5.60;4.32;;;20.70;54.70;;;;;;4973985;28;20372;-68
2022/09/06 02:04:54;;;;;;;7.72;4.80;;;20.70;54.70;;;;;;4975927;28;20039;-68
2022/09/06 02:07:26;;;;;;;7.53;5.03;;;20.60;54.80;;;;;;5006908;28;20042;-68
2022/09/06 02:09:57;;;;;;;8.52;5.20;;;20.60;54.90;;;;;;4977634;28;20046;-68
2022/09/06 02:12:27;;;;;;;5.20;4.50;;;20.60;54.90;;;;;;4977978;28;20109;-66
2022/09/06 02:15:05;;;;;;;6.20;5.00;;;20.50;54.90;;;;;;4973790;28;20047;-66
2022/09/06 02:17:34;;;;;;;6.28;4.82;;;20.50;54.90;;;;;;5008998;28;20051;-66
2022/09/06 02:20:15;;;;;;;4.25;3.60;;;20.50;54.90;;;;;;4992513;28;20070;-67
2022/09/06 02:22:45;;;;;;;5.97;4.72;;;20.50;54.70;;;;;;4992840;28;20078;-67
2022/09/06 02:25:19;;;;;;;5.78;3.90;;;20.50;55.20;;;;;;4984025;28;20042;-67
2022/09/06 02:27:45;;;;;;;;;;;20.50;54.70;;;;;;4991374;28;20037;-67
2022/09/06 02:30:11;;;;;;;9.57;5.80;;;20.50;54.40;;;;;;4982852;28;19918;-66
2022/09/06 02:32:43;;;;;;;6.15;4.72;;;20.60;55.00;;;;;;4974534;28;20043;-66
2022/09/06 02:35:13;;;;;;;4.20;3.80;;;20.60;55.10;;;;;;4978949;28;20057;-66
2022/09/06 02:37:39;;;;;;;4.35;3.83;;;20.60;54.90;;;;;;4974260;28;20117;-66
2022/09/06 02:40:06;;;;;;;4.25;3.85;;;20.60;54.70;;;;;;4991132;28;20038;-67
2022/09/06 02:42:32;;;;;;;4.10;3.70;;;20.70;54.50;;;;;;4979069;28;20054;-67
2022/09/06 02:44:57;;;;;;;5.55;3.55;;;20.70;54.50;;;;;;4986914;28;20103;-67
2022/09/06 02:47:23;;;;;;;5.15;4.50;;;20.70;54.30;;;;;;4993281;28;20482;-68
2022/09/06 02:49:49;;;;;;;5.07;4.40;;;20.70;54.40;;;;;;4988707;28;20112;-68
2022/09/06 02:52:15;;;;;;;5.93;4.38;;;20.80;54.50;;;;;;4992425;28;20043;-68
2022/09/06 02:54:40;;;;;;;5.75;3.60;;;20.80;54.40;;;;;;4993546;28;20470;-68
2022/09/06 02:57:06;;;;;;;5.63;4.85;;;20.90;54.30;;;;;;4992439;28;20115;-68
2022/09/06 02:59:31;;;;;;;4.90;4.40;;;20.80;54.40;;;;;;4990682;28;20092;-68
2022/09/06 03:01:57;;;;;;;6.05;4.22;;;20.80;54.30;;;;;;4975319;28;20046;-68
2022/09/06 03:04:23;;;;;;;5.90;4.90;;;20.80;54.20;;;;;;4976006;28;20122;-67
2022/09/06 03:06:49;;;;;;;7.75;5.20;;;20.80;54.20;;;;;;4974201;28;20125;-66
2022/09/06 03:09:14;;;;;;;5.03;4.30;;;20.80;54.30;;;;;;4974325;28;20034;-66
2022/09/06 03:11:40;;;;;;;5.82;4.78;;;20.80;54.30;;;;;;4974061;28;20053;-66
2022/09/06 03:14:05;;;;;;;5.03;4.53;;;20.80;54.30;;;;;;4974466;28;20123;-67
2022/09/06 03:16:31;;;;;;;8.05;5.35;;;20.80;54.40;;;;;;4991470;28;20049;-68
2022/09/06 03:18:57;;;;;;;7.15;6.00;;;20.80;54.40;;;;;;4973098;28;20049;-68
2022/09/06 03:21:22;;;;;;;7.80;5.47;;;20.80;54.30;;;;;;4975874;28;20094;-66
2022/09/06 03:23:48;;;;;;;7.97;5.18;;;20.70;54.40;;;;;;4972696;28;20046;-66
2022/09/06 03:26:14;;;;;;;8.68;5.40;;;20.60;54.50;;;;;;4972571;28;20102;-66
2022/09/06 03:28:40;;;;;;;7.22;5.15;;;20.60;54.60;;;;;;4985884;28;20048;-66
2022/09/06 03:31:06;;;;;;;9.52;5.35;;;20.60;54.70;;;;;;4990077;28;20049;-67
2022/09/06 03:33:31;;;;;;;6.65;5.07;;;20.60;54.70;;;;;;4993012;28;20126;-66
2022/09/06 03:35:59;;;;;;;6.70;4.80;;;20.50;54.80;;;;;;4991432;28;20080;-66
2022/09/06 03:38:26;;;;;;;6.63;4.43;;;20.60;54.90;;;;;;4990943;28;20046;-66
2022/09/06 03:40:53;;;;;;;6.82;4.80;;;20.60;54.80;;;;;;4990951;28;20058;-66
2022/09/06 03:43:21;;;;;;;9.98;5.18;;;20.50;54.80;;;;;;4991035;28;20050;-66
2022/09/06 03:45:50;;;;;;;4.88;4.20;;;20.50;54.80;;;;;;4978848;28;20039;-67
2022/09/06 03:48:18;;;;;;;6.18;5.32;;;20.50;54.70;;;;;;4973993;28;20046;-67
2022/09/06 03:50:49;;;;;;;6.40;4.32;;;20.50;54.80;;;;;;4988210;28;20051;-68
2022/09/06 03:53:16;;;;;;;5.03;4.47;;;20.50;54.70;;;;;;5005342;28;20047;-67
2022/09/06 03:55:49;;;;;;;4.65;4.20;;;20.50;54.70;;;;;;4973519;28;20395;-67
2022/09/06 03:58:17;;;;;;;5.10;4.60;;;20.50;54.60;;;;;;4981751;28;20498;-67
2022/09/06 04:00:43;;;;;;;5.47;4.40;;;20.50;54.60;;;;;;4989814;28;20047;-67
2022/09/06 04:03:09;;;;;;;6.15;4.38;;;20.60;54.60;;;;;;4976305;28;20129;-67
2022/09/06 04:05:35;;;;;;;4.88;3.95;;;20.60;54.70;;;;;;4993122;28;20072;-67
2022/09/06 04:08:01;;;;;;;7.10;5.50;;;20.60;54.60;;;;;;4992574;28;20398;-67
2022/09/06 04:10:27;;;;;;;7.03;5.28;;;20.60;55.00;;;;;;4991884;28;20053;-67
2022/09/06 04:12:53;;;;;;;7.00;5.43;;;20.70;55.30;;;;;;4991629;28;20042;-66
2022/09/06 04:15:19;;;;;;;6.20;5.53;;;20.70;55.60;;;;;;4978696;28;20045;-66
2022/09/06 04:17:45;;;;;;;7.05;5.72;;;20.70;55.40;;;;;;4991658;28;20030;-66
2022/09/06 04:20:12;;;;;;;7.20;5.22;;;20.60;55.40;;;;;;4995049;28;20042;-66
2022/09/06 04:22:38;;;;;;;5.63;5.10;;;20.60;55.50;;;;;;4993726;28;20042;-66
2022/09/06 04:25:04;;;;;;;5.85;4.60;;;20.60;55.40;;;;;;4994990;28;20559;-66
2022/09/06 04:27:30;;;;;;;7.85;5.45;;;20.60;55.50;;;;;;4994688;28;20112;-67
2022/09/06 04:29:55;;;;;;;7.07;6.30;;;20.50;55.60;;;;;;4975377;28;20046;-68
2022/09/06 04:32:21;;;;;;;7.32;5.72;;;20.50;55.80;;;;;;4977618;28;20156;-68
2022/09/06 04:34:47;;;;;;;6.72;6.03;;;20.50;56.00;;;;;;4986380;28;20051;-68
2022/09/06 04:37:16;;;;;;;7.10;6.40;;;20.40;56.30;;;;;;4985295;28;20050;-68
2022/09/06 04:39:43;;;;;;;6.63;5.82;;;20.40;56.70;;;;;;4992212;28;20061;-68
2022/09/06 04:42:09;;;;;;;6.63;6.03;;;20.30;56.80;;;;;;4994205;28;20117;-68
2022/09/06 04:44:34;;;;;;;7.47;6.60;;;20.30;57.00;;;;;;4994730;28;20046;-68
2022/09/06 04:47:08;;;;;;;7.50;6.82;;;20.30;57.30;;;;;;4995495;28;20041;-67
2022/09/06 04:49:34;;;;;;;9.73;6.72;;;20.20;57.60;;;;;;4989171;28;20042;-66
2022/09/06 04:52:00;;;;;;;7.55;6.85;;;20.30;57.60;;;;;;4984421;28;20082;-66
2022/09/06 04:54:26;;;;;;;7.28;6.53;;;20.20;57.80;;;;;;4994483;28;20074;-66
2022/09/06 04:56:51;;;;;;;6.18;5.57;;;20.20;57.80;;;;;;4995059;28;20042;-65
2022/09/06 04:59:17;;;;;;;6.63;5.40;;;20.20;57.90;;;;;;4977473;28;20046;-67
2022/09/06 05:01:43;;;;;;;7.13;6.53;;;20.20;57.60;;;;;;4994912;28;20038;-66
2022/09/06 05:04:08;;;;;;;8.63;7.28;;;20.20;57.80;;;;;;4980608;28;20505;-65
2022/09/06 05:06:34;;;;;;;8.57;7.78;;;20.20;58.20;;;;;;4985605;28;20066;-65
2022/09/06 05:09:00;;;;;;;10.00;7.78;;;20.10;58.70;;;;;;4983174;28;20035;-65
2022/09/06 05:11:26;;;;;;;13.60;8.68;;;20.10;59.20;;;;;;4995091;28;20045;-65
2022/09/06 05:13:52;;;;;;;9.55;8.65;;;20.10;59.20;;;;;;4992420;28;20117;-65
2022/09/06 05:16:18;;;;;;;8.80;7.43;;;19.90;59.40;;;;;;4993178;28;20045;-65
2022/09/06 05:18:43;;;;;;;10.40;9.30;;;19.90;60.00;;;;;;4994866;28;20494;-66
2022/09/06 05:21:09;;;;;;;9.45;8.43;;;19.80;60.30;;;;;;4987775;28;20043;-65
2022/09/06 05:23:35;;;;;;;9.20;8.40;;;19.80;60.60;;;;;;4977308;28;20130;-65
2022/09/06 05:26:00;;;;;;;8.65;7.75;;;19.70;60.60;;;;;;4985754;28;20030;-67
2022/09/06 05:28:26;;;;;;;9.40;8.52;;;19.60;60.50;;;;;;4994366;28;20034;-68
2022/09/06 05:30:52;;;;;;;9.50;8.60;;;19.60;60.80;;;;;;4985195;28;20069;-67
2022/09/06 05:33:21;;;;;;;9.82;8.80;;;19.60;60.90;;;;;;4974269;28;20051;-67
2022/09/06 05:35:47;;;;;;;10.43;8.95;;;19.50;60.90;;;;;;4975961;28;20047;-68
2022/09/06 05:38:13;;;;;;;10.70;9.48;;;19.50;60.90;;;;;;4976639;28;20121;-68
2022/09/06 05:40:39;;;;;;;9.85;8.95;;;19.50;61.00;;;;;;4974574;28;20619;-68
2022/09/06 05:43:05;;;;;;;9.52;8.57;;;19.40;61.30;;;;;;4988440;28;20136;-68
2022/09/06 05:45:30;;;;;;;13.07;9.60;;;19.30;61.60;;;;;;4991304;28;20185;-65
2022/09/06 05:47:56;;;;;;;10.05;9.05;;;19.30;61.90;;;;;;4990491;28;20686;-65
2022/09/06 05:50:22;;;;;;;10.18;9.18;;;19.30;61.70;;;;;;4982685;28;20413;-65
2022/09/06 05:52:47;;;;;;;11.52;10.23;;;19.20;62.20;;;;;;4993517;28;20038;-67
2022/09/06 05:55:13;;;;;;;10.30;9.35;;;19.10;62.20;;;;;;4988005;28;20042;-67
2022/09/06 05:57:38;;;;;;;10.93;9.82;;;19.00;62.60;;;;;;4973738;28;20086;-67
2022/09/06 06:00:06;;;;;;;10.65;9.30;;;18.90;63.00;;;;;;4990162;28;20043;-68
2022/09/06 06:02:31;;;;;;;12.15;9.60;;;18.80;63.20;;;;;;4993147;28;20081;-67
2022/09/06 06:04:57;;;;;;;11.27;10.18;;;18.70;63.50;;;;;;4978506;28;20070;-65
2022/09/06 06:07:23;;;;;;;11.10;9.93;;;18.70;63.70;;;;;;4993566;28;20069;-65
2022/09/06 06:09:49;;;;;;;11.32;10.23;;;18.60;63.80;;;;;;4993112;28;20101;-65
2022/09/06 06:12:14;;;;;;;10.73;9.82;;;18.60;64.20;;;;;;4991379;28;20050;-65
2022/09/06 06:14:40;;;;;;;10.80;9.75;;;18.60;64.40;;;;;;4973537;28;20047;-65
2022/09/06 06:17:06;;;;;;;9.50;8.55;;;18.50;64.50;;;;;;4979299;28;20034;-68
2022/09/06 06:19:31;;;;;;;10.85;9.88;;;18.60;64.30;;;;;;4992618;28;20042;-65
2022/09/06 06:21:57;;;;;;;8.90;8.05;;;18.60;64.70;;;;;;4993098;28;20049;-66
2022/09/06 06:24:23;;;;;;;10.23;9.32;;;18.70;64.80;;;;;;4993991;28;20085;-65
2022/09/06 06:26:49;;;;;;;8.20;7.50;;;18.70;64.60;;;;;;4986243;28;20093;-65
2022/09/06 06:29:14;;;;;;;8.80;7.90;;;18.70;64.30;;;;;;4973287;28;20047;-65
2022/09/06 06:31:40;;;;;;;8.50;7.75;;;18.80;64.10;;;;;;4973208;28;20054;-65
2022/09/06 06:34:07;;;;;;;7.82;7.13;;;18.90;64.10;;;;;;4974599;28;20035;-65
2022/09/06 06:36:34;;;;;;;10.15;8.00;;;18.90;64.00;;;;;;4977892;28;20402;-66
2022/09/06 06:39:02;;;;;;;9.50;8.50;;;19.00;63.80;;;;;;4995758;28;20105;-67
2022/09/06 06:41:30;;;;;;;8.93;8.05;;;19.00;63.80;;;;;;4991973;28;20112;-67
2022/09/06 06:44:01;;;;;;;9.90;8.90;;;19.10;63.80;;;;;;4930367;28;20043;-65
2022/09/06 06:46:30;;;;;;;10.00;8.45;;;19.20;63.70;;;;;;4946110;29;20044;-65
2022/09/06 06:48:56;;;;;;;9.77;8.88;;;19.30;63.60;;;;;;4945315;29;20122;-67
2022/09/06 06:51:27;;;;;;;12.00;10.60;;;19.30;63.80;;;;;;4945258;28;20592;-67
2022/09/06 06:53:55;;;;;;;9.40;8.57;;;19.30;64.30;;;;;;4932561;29;20043;-68
2022/09/06 06:56:27;;;;;;;9.98;8.30;;;19.40;64.10;;;;;;4945948;29;20143;-65
2022/09/06 06:58:58;;;;;;;10.05;9.05;;;19.40;63.80;;;;;;4932708;29;20032;-67
2022/09/06 07:01:26;;;;;;;8.77;8.05;;;19.40;63.70;;;;;;4931632;29;20122;-65
2022/09/06 07:03:52;;;;;;;8.75;7.95;;;19.40;63.60;;;;;;4930953;29;20058;-66
2022/09/06 07:06:19;;;;;;;9.95;9.07;;;19.50;63.50;;;;;;4930773;29;20035;-65
2022/09/06 07:08:45;;;;;;;10.48;9.57;;;19.50;63.30;;;;;;4931806;29;20401;-65
2022/09/06 07:11:12;;;;;;;11.15;10.05;;;19.60;63.40;;;;;;4931349;29;20043;-65
2022/09/06 07:13:38;;;;;;;11.32;10.32;;;19.60;63.80;;;;;;4930376;29;20580;-67
2022/09/06 07:16:19;;;;;;;9.27;8.38;;;19.60;63.80;;;;;;4930563;29;20058;-66
2022/09/06 07:18:45;;;;;;;9.48;8.68;;;19.70;63.40;;;;;;4946434;29;20047;-67
2022/09/06 07:21:19;;;;;;;10.45;9.43;;;19.70;63.30;;;;;;4930335;29;20494;-65
2022/09/06 07:23:45;;;;;;;14.13;10.60;;;19.70;63.50;;;;;;4930754;29;20044;-65
2022/09/06 07:26:19;;;;;;;10.73;9.60;;;19.70;63.80;;;;;;4930826;29;20376;-65
2022/09/06 07:28:45;;;;;;;11.02;10.02;;;19.70;63.90;;;;;;4931496;29;20488;-65
2022/09/06 07:31:11;;;;;;;10.95;9.85;;;19.80;64.00;;;;;;4932315;29;20036;-65
2022/09/06 07:33:38;;;;;;;11.43;10.23;;;19.90;64.30;;;;;;4931430;29;20488;-68
2022/09/06 07:36:05;;;;;;;11.60;10.50;;;19.90;64.40;;;;;;4930600;29;20048;-69
2022/09/06 07:38:32;;;;;;;13.20;11.98;;;20.00;64.00;;;;;;4928457;29;20460;-69
2022/09/06 07:41:00;;;;;;;13.02;11.77;;;20.10;63.80;;;;;;4929862;29;20096;-70
2022/09/06 07:43:27;;;;;;;13.48;12.27;;;20.20;63.60;;;;;;4931802;29;20064;-70
2022/09/06 07:46:22;;;;;;;11.68;10.57;;;20.20;63.60;;;;;;4930368;29;20044;-69
2022/09/06 07:48:48;;;;;;;12.40;11.20;;;20.40;63.80;;;;;;4934305;29;20048;-68
2022/09/06 07:51:21;;;;;;;12.52;10.95;;;20.50;63.40;;;;;;4934036;29;20044;-68
2022/09/06 07:53:49;;;;;;;12.68;11.40;;;20.70;63.10;;;;;;4932825;29;20114;-70
2022/09/06 07:56:16;;;;;;;11.98;10.85;;;20.90;62.40;;;;;;4933787;29;20047;-68
2022/09/06 07:58:41;;;;;;;13.15;11.77;;;21.00;61.90;;;;;;4932614;29;20048;-70
2022/09/06 08:01:29;;;;;;;11.70;10.57;;;21.10;61.60;;;;;;4933860;29;20108;-69
2022/09/06 08:04:00;;;;;;;11.73;10.68;;;21.30;61.00;;;;;;4931999;29;20046;-69
2022/09/06 08:06:27;;;;;;;12.52;11.02;;;21.40;60.80;;;;;;4932945;29;20111;-69
2022/09/06 08:08:53;;;;;;;12.18;11.10;;;21.50;60.90;;;;;;4932671;29;20118;-69
2022/09/06 08:11:20;;;;;;;12.05;10.82;;;21.60;60.50;;;;;;4933614;29;20066;-71
2022/09/06 08:13:56;;;;;;;13.75;10.88;;;21.70;60.20;;;;;;4937444;29;20055;-69
2022/09/06 08:16:23;;;;;;;10.30;9.43;;;21.80;59.90;;;;;;4945561;29;20479;-69
2022/09/06 08:18:57;;;;;;;11.40;10.40;;;21.90;60.40;;;;;;4924447;29;20114;-69
2022/09/06 08:21:25;;;;;;;10.68;9.60;;;22.10;60.30;;;;;;4937725;29;20548;-69
2022/09/06 08:24:05;;;;;;;11.70;10.60;;;22.30;60.40;;;;;;4945990;28;20107;-70
2022/09/06 08:26:33;;;;;;;11.80;10.60;;;22.60;59.60;;;;;;4937016;29;20648;-70
2022/09/06 08:29:05;;;;;;;11.23;10.02;;;22.90;59.10;;;;;;4923768;29;20075;-70
2022/09/06 08:31:32;;;;;;;12.73;11.02;;;23.20;58.70;;;;;;4922765;29;20079;-69
2022/09/06 08:33:59;;;;;;;11.93;10.50;;;23.40;58.60;;;;;;4910105;29;20095;-69
2022/09/06 08:36:28;;;;;;;11.30;10.30;;;23.60;57.50;;;;;;4929499;29;20036;-69
2022/09/06 08:38:54;;;;;;;9.73;8.82;;;23.70;57.30;;;;;;4937073;29;20044;-69
2022/09/06 08:41:37;;;;;;;9.40;8.32;;;23.90;56.20;;;;;;4952609;29;20056;-69
2022/09/06 08:44:07;;;;;;;10.23;9.15;;;24.00;55.60;;;;;;4950336;29;20043;-71
2022/09/06 08:46:41;;;;;;;8.73;7.82;;;24.20;55.30;;;;;;4932487;29;20040;-71
2022/09/06 08:49:09;;;;;;;8.73;6.97;;;24.30;55.20;;;;;;4926976;29;20127;-71
2022/09/06 08:52:04;;;;;;;9.70;8.55;;;24.50;54.40;;;;;;4931023;29;20043;-71
2022/09/06 08:54:50;;;;;;;8.73;7.80;;;24.70;54.20;;;;;;4909291;29;20155;-69
2022/09/06 08:57:38;;;;;;;7.85;7.13;;;24.80;53.90;;;;;;4918457;29;20048;-69
2022/09/06 09:00:08;;;;;;;9.52;7.30;;;24.90;53.80;;;;;;4934760;29;20492;-71
2022/09/06 09:02:42;;;;;;;9.00;8.00;;;25.00;53.60;;;;;;4910195;29;20044;-71
2022/09/06 09:05:23;;;;;;;8.45;7.57;;;25.20;53.20;;;;;;4949711;29;20119;-71
2022/09/06 09:07:56;;;;;;;8.18;7.25;;;25.30;53.10;;;;;;4939924;29;20508;-71
2022/09/06 09:10:28;;;;;;;8.10;7.30;;;25.50;52.80;;;;;;4936342;29;20051;-71
2022/09/06 09:12:53;;;;;;;8.20;6.13;;;25.70;52.50;;;;;;4936227;29;20042;-69
2022/09/06 09:15:20;;;;;;;6.93;6.15;;;25.80;52.60;;;;;;4936473;29;20476;-69
2022/09/06 09:17:51;;;;;;;6.63;6.03;;;26.00;51.40;;;;;;4937342;29;20051;-70
2022/09/06 09:20:17;;;;;;;7.32;6.63;;;26.20;51.20;;;;;;4944196;29;20079;-71
2022/09/06 09:22:43;;;;;;;6.30;5.50;;;26.30;50.90;;;;;;4935572;29;20500;-71
2022/09/06 09:25:16;;;;;;;6.18;5.68;;;26.40;50.00;;;;;;4935893;29;20054;-69
2022/09/06 09:27:44;;;;;;;7.40;6.68;;;26.50;50.10;;;;;;4919318;29;20083;-69
2022/09/06 09:30:10;;;;;;;6.97;5.30;;;26.50;49.60;;;;;;4935873;29;20048;-69
2022/09/06 09:32:42;;;;;;;5.57;4.80;;;26.50;49.40;;;;;;4935073;29;20043;-71
2022/09/06 09:35:29;;;;;;;5.10;4.60;;;26.60;48.80;;;;;;4933880;29;20106;-69
2022/09/06 09:38:03;;;;;;;5.45;4.95;;;26.60;48.10;;;;;;4948115;28;20403;-69
2022/09/06 09:40:50;;;;;;;6.68;4.28;;;26.70;47.90;;;;;;4931956;29;20472;-70
2022/09/06 09:43:31;;;;;;;5.60;5.00;;;26.80;47.80;;;;;;4918243;29;20063;-69
2022/09/06 09:46:07;;;;;;;7.13;6.05;;;26.80;47.30;;;;;;4922656;29;20043;-69
2022/09/06 09:48:32;;;;;;;6.75;4.13;;;27.00;47.60;;;;;;4920980;29;20043;-69
2022/09/06 09:51:22;;;;;;;5.43;4.40;;;27.00;47.20;;;;;;4935583;29;20051;-69
2022/09/06 09:54:03;;;;;;;8.40;5.35;;;27.10;46.90;;;;;;4916971;29;20052;-69
2022/09/06 09:56:52;;;;;;;7.05;5.72;;;27.10;46.60;;;;;;4930144;29;20070;-69
2022/09/06 09:59:28;;;;;;;5.45;4.05;;;27.10;46.90;;;;;;4930408;29;20043;-70
2022/09/06 10:01:58;;;;;;;6.97;4.40;;;27.10;46.90;;;;;;4947307;28;20051;-69
2022/09/06 10:04:35;;;;;;;6.90;4.85;;;27.10;46.60;;;;;;4946564;28;20044;-69
2022/09/06 10:07:19;;;;;;;4.30;3.78;;;27.10;46.20;;;;;;4944589;29;20067;-69
2022/09/06 10:09:55;;;;;;;5.03;3.95;;;27.10;46.50;;;;;;4934623;28;20040;-69
2022/09/06 10:12:33;;;;;;;4.05;2.63;;;27.20;46.10;;;;;;4948012;28;20047;-69
2022/09/06 10:14:59;;;;;;;5.88;3.92;;;27.40;45.70;;;;;;4930974;29;20413;-69
2022/09/06 10:17:32;;;;;;;6.30;4.60;;;27.50;45.20;;;;;;4945918;28;20094;-69
2022/09/06 10:20:02;;;;;;;6.03;3.20;;;27.60;45.30;;;;;;4944050;28;20050;-70
2022/09/06 10:22:39;;;;;;;5.95;3.47;;;27.60;43.80;;;;;;4931938;29;20051;-69
2022/09/06 10:25:26;;;;;;;6.65;3.72;;;27.60;43.80;;;;;;4929474;29;20072;-69
2022/09/06 10:28:24;;;;;;;4.55;3.42;;;27.60;43.80;;;;;;4946428;29;20046;-69
2022/09/06 10:31:17;;;;;;;5.05;3.83;;;27.60;44.40;;;;;;4931039;29;20400;-67
2022/09/06 10:34:04;;;;;;;4.05;3.47;;;27.70;43.90;;;;;;4946940;28;20083;-70
2022/09/06 10:36:46;;;;;;;4.68;3.70;;;27.70;43.90;;;;;;4946409;29;20043;-70
2022/09/06 10:39:39;;;;;;;5.53;3.92;;;27.80;43.50;;;;;;4929622;29;20052;-67
2022/09/06 10:42:23;;;;;;;7.50;4.22;;;27.90;44.20;;;;;;4945207;28;20056;-69
2022/09/06 10:45:10;;;;;;;4.80;4.10;;;27.90;43.50;;;;;;4929994;29;20434;-70
2022/09/06 10:47:55;;;;;;;6.32;2.67;;;27.90;43.00;;;;;;4931401;29;20039;-69
2022/09/06 10:50:29;;;;;;;4.38;3.75;;;27.90;43.60;;;;;;4922391;29;20047;-67
2022/09/06 10:53:04;;;;;;;6.50;3.60;;;28.00;43.20;;;;;;4920419;29;20449;-67
2022/09/06 10:55:31;;;;;;;5.57;3.60;;;28.10;43.00;;;;;;4928178;29;20066;-67
2022/09/06 10:58:03;;;;;;;4.43;2.97;;;28.10;42.40;;;;;;4934358;29;20048;-68
2022/09/06 11:00:36;;;;;;;3.70;3.25;;;28.20;42.40;;;;;;4927684;29;20542;-68
2022/09/06 11:03:31;;;;;;;3.65;3.00;;;28.20;41.90;;;;;;4931697;29;20055;-69
2022/09/06 11:06:11;;;;;;;4.13;3.13;;;28.20;42.00;;;;;;4922731;29;20044;-67
2022/09/06 11:08:37;;;;;;;6.40;5.05;;;28.20;42.60;;;;;;4929797;28;20039;-67
2022/09/06 11:11:10;;;;;;;6.97;5.50;;;28.20;42.40;;;;;;4929669;29;20422;-70
2022/09/06 11:13:36;;;;;;;7.47;5.00;;;28.30;42.90;;;;;;4921905;29;20440;-69
2022/09/06 11:16:10;;;;;;;6.35;5.35;;;28.30;43.60;;;;;;4931404;29;20044;-70
2022/09/06 11:18:58;;;;;;;6.93;5.85;;;28.30;43.80;;;;;;4924984;29;20036;-70
2022/09/06 11:21:42;;;;;;;6.13;5.53;;;28.40;43.80;;;;;;4928692;29;20436;-70
2022/09/06 11:24:31;;;;;;;6.30;4.88;;;28.40;43.30;;;;;;4946199;29;20047;-69
2022/09/06 11:27:36;;;;;;;6.78;5.53;;;28.40;43.70;;;;;;4940214;28;20039;-67
2022/09/06 11:30:05;;;;;;;6.22;5.20;;;28.40;43.50;;;;;;4937638;29;20058;-68
2022/09/06 11:32:39;;;;;;;7.28;3.83;;;28.40;43.20;;;;;;4937849;29;20058;-68
2022/09/06 11:35:26;;;;;;;7.60;5.53;;;28.40;43.40;;;;;;4937877;29;20040;-68
2022/09/06 11:38:02;;;;;;;5.63;4.93;;;28.50;43.60;;;;;;4928677;29;20510;-67
2022/09/06 11:40:36;;;;;;;7.53;5.15;;;28.50;43.40;;;;;;4927380;29;20092;-67
2022/09/06 11:43:02;;;;;;;4.80;4.30;;;28.50;43.90;;;;;;4933950;29;20099;-69
2022/09/06 11:45:46;;;;;;;8.13;6.35;;;28.50;44.20;;;;;;4928064;29;20039;-67
2022/09/06 11:48:25;;;;;;;5.07;4.10;;;28.60;43.80;;;;;;4925267;29;20449;-69
2022/09/06 11:50:53;;;;;;;6.00;4.65;;;28.70;43.60;;;;;;4921383;29;20055;-69
2022/09/06 11:53:28;;;;;;;5.40;4.53;;;28.70;42.90;;;;;;4946961;28;20040;-64
2022/09/06 11:56:00;;;;;;;7.40;3.72;;;28.70;43.00;;;;;;4934246;29;20111;-64
2022/09/06 11:58:43;;;;;;;7.00;3.13;;;28.70;43.00;;;;;;4930209;29;20039;-64
2022/09/06 12:01:12;;;;;;;3.77;2.73;;;28.80;42.50;;;;;;4936939;29;20084;-64
2022/09/06 12:03:49;;;;;;;4.47;2.80;;;28.80;41.80;;;;;;4946741;28;20058;-64
2022/09/06 12:06:18;;;;;;;5.80;2.42;;;28.80;42.00;;;;;;4949051;29;20051;-64
2022/09/06 12:08:45;;;;;;;4.95;2.90;;;28.90;41.60;;;;;;4927896;29;20059;-64
2022/09/06 12:11:40;;;;;;;6.22;3.78;;;28.90;41.90;;;;;;4921986;29;20605;-64
2022/09/06 12:14:18;;;;;;;8.43;3.88;;;28.90;41.60;;;;;;4932746;29;20051;-64
2022/09/06 12:16:59;;;;;;;3.90;2.97;;;28.80;41.80;;;;;;4927079;29;20079;-64
2022/09/06 12:19:48;;;;;;;5.63;3.50;;;28.80;42.30;;;;;;4929120;29;20492;-64
2022/09/06 12:22:26;;;;;;;3.50;3.17;;;28.80;41.90;;;;;;4936742;29;20071;-64
2022/09/06 12:24:55;;;;;;;4.93;3.00;;;28.80;41.70;;;;;;4921742;29;20064;-65
2022/09/06 12:27:23;;;;;;;4.30;2.60;;;28.70;41.90;;;;;;4932824;29;20510;-64
2022/09/06 12:29:57;;;;;;;4.57;2.58;;;28.80;41.40;;;;;;4937876;29;20107;-64
2022/09/06 12:32:30;;;;;;;3.60;2.30;;;28.80;41.30;;;;;;4930449;29;20066;-65
2022/09/06 12:34:57;;;;;;;5.78;2.72;;;28.80;41.00;;;;;;4934154;29;20046;-64
2022/09/06 12:37:36;;;;;;;4.72;2.63;;;28.70;41.10;;;;;;4945589;29;20051;-65
2022/09/06 12:40:05;;;;;;;4.43;2.40;;;28.80;41.20;;;;;;4920887;29;20127;-65
2022/09/06 12:42:34;;;;;;;3.75;2.20;;;28.70;41.40;;;;;;4930587;29;20151;-64
2022/09/06 12:45:03;;;;;;;2.78;1.63;;;28.70;41.80;;;;;;4927754;29;20043;-64
2022/09/06 12:47:35;;;;;;;3.45;2.17;;;28.80;42.20;;;;;;4939629;29;20478;-65
2022/09/06 12:50:13;;;;;;;4.63;2.00;;;28.90;42.00;;;;;;4934365;29;20448;-64
2022/09/06 12:52:50;;;;;;;3.83;1.95;;;29.00;41.80;;;;;;4919541;29;20055;-66
2022/09/06 12:55:21;;;;;;;4.70;1.73;;;29.00;41.60;;;;;;4928756;29;20119;-64
2022/09/06 12:57:53;;;;;;;3.42;2.20;;;29.10;41.90;;;;;;4928236;29;20567;-64
2022/09/06 13:00:21;;;;;;;3.67;1.70;;;29.20;41.50;;;;;;4933984;29;20126;-64
2022/09/06 13:02:55;;;;;;;2.85;1.65;;;29.30;41.30;;;;;;4932129;29;20055;-64
2022/09/06 13:05:21;;;;;;;4.07;1.63;;;29.40;40.90;;;;;;4945589;29;20043;-64
2022/09/06 13:07:52;;;;;;;4.32;1.30;;;29.40;40.60;;;;;;4935146;29;20507;-64